sensor_id;sensor_type;location;lat;lon;timestamp;temperature;humidity
13652;DHT22;6899;51.546;6.912;2022-11-30T00:02:08;7.30;99.90
13652;DHT22;6899;51.546;6.912;2022-11-30T00:04:37;7.30;99.90
13652;DHT22;6899;51.546;6.912;2022-11-30T00:07:05;7.40;99.90
13652;DHT22;6899;51.546;6.912;2022-11-30T00:09:32;7.40;99.90
13652;DHT22;6899;51.546;6.912;2022-11-30T00:11:59;7.30;99.90
13652;DHT22;6899;51.546;6.912;2022-11-30T00:14:26;7.40;99.90
13652;DHT22;6899;51.546;6.912;2022-11-30T00:16:52;7.40;99.90
13652;DHT22;6899;51.546;6.912;2022-11-30T00:19:19;7.40;99.90
13652;DHT22;6899;51.546;6.912;2022-11-30T00:21:46;7.40;99.90
13652;DHT22;6899;51.546;6.912;2022-11-30T00:24:14;7.50;99.90
13652;DHT22;6899;51.546;6.912;2022-11-30T00:26:41;7.40;99.90
13652;DHT22;6899;51.546;6.912;2022-11-30T00:29:08;7.40;99.90
13652;DHT22;6899;51.546;6.912;2022-11-30T00:31:35;7.40;99.90
13652;DHT22;6899;51.546;6.912;2022-11-30T00:34:02;7.50;99.90
13652;DHT22;6899;51.546;6.912;2022-11-30T00:36:29;7.50;99.90
13652;DHT22;6899;51.546;6.912;2022-11-30T00:38:56;7.50;99.90
13652;DHT22;6899;51.546;6.912;2022-11-30T00:41:24;7.50;99.90
13652;DHT22;6899;51.546;6.912;2022-11-30T00:43:51;7.50;99.90
13652;DHT22;6899;51.546;6.912;2022-11-30T00:46:18;7.50;99.90
13652;DHT22;6899;51.546;6.912;2022-11-30T00:48:45;7.50;99.90
13652;DHT22;6899;51.546;6.912;2022-11-30T00:51:12;7.60;99.90
13652;DHT22;6899;51.546;6.912;2022-11-30T00:53:39;7.60;99.90
13652;DHT22;6899;51.546;6.912;2022-11-30T00:56:13;7.50;99.90
13652;DHT22;6899;51.546;6.912;2022-11-30T00:58:41;7.40;99.90
13652;DHT22;6899;51.546;6.912;2022-11-30T01:01:08;7.30;99.90
13652;DHT22;6899;51.546;6.912;2022-11-30T01:03:35;7.30;99.90
13652;DHT22;6899;51.546;6.912;2022-11-30T01:06:02;7.30;99.90
13652;DHT22;6899;51.546;6.912;2022-11-30T01:08:29;7.20;99.90
13652;DHT22;6899;51.546;6.912;2022-11-30T01:11:03;7.10;99.90
13652;DHT22;6899;51.546;6.912;2022-11-30T01:13:30;7.10;99.90
13652;DHT22;6899;51.546;6.912;2022-11-30T01:15:59;7.10;99.90
13652;DHT22;6899;51.546;6.912;2022-11-30T01:18:26;7.10;99.90
13652;DHT22;6899;51.546;6.912;2022-11-30T01:20:52;7.10;99.90
13652;DHT22;6899;51.546;6.912;2022-11-30T01:23:22;7.10;99.90
13652;DHT22;6899;51.546;6.912;2022-11-30T01:25:53;7.10;99.90
13652;DHT22;6899;51.546;6.912;2022-11-30T01:28:20;7.10;99.90
13652;DHT22;6899;51.546;6.912;2022-11-30T01:30:55;7.10;99.90
13652;DHT22;6899;51.546;6.912;2022-11-30T01:33:23;7.00;99.90
13652;DHT22;6899;51.546;6.912;2022-11-30T01:35:58;6.90;99.90
13652;DHT22;6899;51.546;6.912;2022-11-30T01:38:25;6.90;99.90
13652;DHT22;6899;51.546;6.912;2022-11-30T01:40:51;6.90;99.90
13652;DHT22;6899;51.546;6.912;2022-11-30T01:43:19;6.90;99.90
13652;DHT22;6899;51.546;6.912;2022-11-30T01:45:47;6.90;99.90
13652;DHT22;6899;51.546;6.912;2022-11-30T01:48:14;6.80;99.90
13652;DHT22;6899;51.546;6.912;2022-11-30T01:50:43;6.70;99.90
13652;DHT22;6899;51.546;6.912;2022-11-30T01:53:10;6.70;99.90
13652;DHT22;6899;51.546;6.912;2022-11-30T01:55:40;6.70;99.90
13652;DHT22;6899;51.546;6.912;2022-11-30T01:58:11;6.70;99.90
13652;DHT22;6899;51.546;6.912;2022-11-30T02:00:43;6.60;99.90
13652;DHT22;6899;51.546;6.912;2022-11-30T02:03:15;6.60;99.90
13652;DHT22;6899;51.546;6.912;2022-11-30T02:05:44;6.60;99.90
13652;DHT22;6899;51.546;6.912;2022-11-30T02:08:12;6.60;99.90
13652;DHT22;6899;51.546;6.912;2022-11-30T02:10:46;6.50;99.90
13652;DHT22;6899;51.546;6.912;2022-11-30T02:13:27;6.50;99.90
13652;DHT22;6899;51.546;6.912;2022-11-30T02:16:02;6.50;99.90
13652;DHT22;6899;51.546;6.912;2022-11-30T02:18:45;6.40;99.90
13652;DHT22;6899;51.546;6.912;2022-11-30T02:21:17;6.40;99.90
13652;DHT22;6899;51.546;6.912;2022-11-30T02:24:15;6.40;99.90
13652;DHT22;6899;51.546;6.912;2022-11-30T02:27:01;6.40;99.90
13652;DHT22;6899;51.546;6.912;2022-11-30T02:29:33;6.40;99.90
13652;DHT22;6899;51.546;6.912;2022-11-30T02:32:03;6.40;99.90
13652;DHT22;6899;51.546;6.912;2022-11-30T02:34:34;6.50;99.90
13652;DHT22;6899;51.546;6.912;2022-11-30T02:37:04;6.50;99.90
13652;DHT22;6899;51.546;6.912;2022-11-30T02:39:32;6.50;99.90
13652;DHT22;6899;51.546;6.912;2022-11-30T02:41:59;6.50;99.90
13652;DHT22;6899;51.546;6.912;2022-11-30T02:44:26;6.50;99.90
13652;DHT22;6899;51.546;6.912;2022-11-30T02:47:08;6.50;99.90
13652;DHT22;6899;51.546;6.912;2022-11-30T02:49:42;6.40;99.90
13652;DHT22;6899;51.546;6.912;2022-11-30T02:52:11;6.40;99.90
13652;DHT22;6899;51.546;6.912;2022-11-30T02:54:39;6.30;99.90
13652;DHT22;6899;51.546;6.912;2022-11-30T02:57:06;6.40;99.90
13652;DHT22;6899;51.546;6.912;2022-11-30T02:59:33;6.40;99.90
13652;DHT22;6899;51.546;6.912;2022-11-30T03:02:01;6.40;99.90
13652;DHT22;6899;51.546;6.912;2022-11-30T03:04:28;6.30;99.90
13652;DHT22;6899;51.546;6.912;2022-11-30T03:06:55;6.30;99.90
13652;DHT22;6899;51.546;6.912;2022-11-30T03:09:21;6.30;99.90
13652;DHT22;6899;51.546;6.912;2022-11-30T03:11:48;6.30;99.90
13652;DHT22;6899;51.546;6.912;2022-11-30T03:14:15;6.40;99.90
13652;DHT22;6899;51.546;6.912;2022-11-30T03:16:42;6.40;99.90
13652;DHT22;6899;51.546;6.912;2022-11-30T03:19:11;6.30;99.90
13652;DHT22;6899;51.546;6.912;2022-11-30T03:21:38;6.40;99.90
13652;DHT22;6899;51.546;6.912;2022-11-30T03:24:06;6.30;99.90
13652;DHT22;6899;51.546;6.912;2022-11-30T03:26:32;6.30;99.90
13652;DHT22;6899;51.546;6.912;2022-11-30T03:28:59;6.30;99.90
13652;DHT22;6899;51.546;6.912;2022-11-30T03:31:26;6.20;99.90
13652;DHT22;6899;51.546;6.912;2022-11-30T03:33:53;6.20;99.90
13652;DHT22;6899;51.546;6.912;2022-11-30T03:36:21;6.20;99.90
13652;DHT22;6899;51.546;6.912;2022-11-30T03:38:47;6.20;99.90
13652;DHT22;6899;51.546;6.912;2022-11-30T03:41:16;6.20;99.90
13652;DHT22;6899;51.546;6.912;2022-11-30T03:43:43;6.10;99.90
13652;DHT22;6899;51.546;6.912;2022-11-30T03:46:11;6.10;99.90
13652;DHT22;6899;51.546;6.912;2022-11-30T03:48:39;6.10;99.90
13652;DHT22;6899;51.546;6.912;2022-11-30T03:51:10;6.00;99.90
13652;DHT22;6899;51.546;6.912;2022-11-30T03:53:38;6.00;99.90
13652;DHT22;6899;51.546;6.912;2022-11-30T03:56:07;6.00;99.90
13652;DHT22;6899;51.546;6.912;2022-11-30T03:58:34;6.00;99.90
13652;DHT22;6899;51.546;6.912;2022-11-30T04:01:02;6.00;99.90
13652;DHT22;6899;51.546;6.912;2022-11-30T04:03:29;6.00;99.90
13652;DHT22;6899;51.546;6.912;2022-11-30T04:05:56;6.10;99.90
13652;DHT22;6899;51.546;6.912;2022-11-30T04:08:23;6.10;99.90
13652;DHT22;6899;51.546;6.912;2022-11-30T04:10:51;6.20;99.90
13652;DHT22;6899;51.546;6.912;2022-11-30T04:13:19;6.10;99.90
13652;DHT22;6899;51.546;6.912;2022-11-30T04:15:46;6.10;99.90
13652;DHT22;6899;51.546;6.912;2022-11-30T04:18:13;6.10;99.90
13652;DHT22;6899;51.546;6.912;2022-11-30T04:20:41;6.10;99.90
13652;DHT22;6899;51.546;6.912;2022-11-30T04:23:09;6.10;99.90
13652;DHT22;6899;51.546;6.912;2022-11-30T04:25:39;6.10;99.90
13652;DHT22;6899;51.546;6.912;2022-11-30T04:28:08;6.00;99.90
13652;DHT22;6899;51.546;6.912;2022-11-30T04:30:36;6.00;99.90
13652;DHT22;6899;51.546;6.912;2022-11-30T04:33:03;6.00;99.90
13652;DHT22;6899;51.546;6.912;2022-11-30T04:35:30;6.00;99.90
13652;DHT22;6899;51.546;6.912;2022-11-30T04:37:57;5.90;99.90
13652;DHT22;6899;51.546;6.912;2022-11-30T04:40:24;5.90;99.90
13652;DHT22;6899;51.546;6.912;2022-11-30T04:42:51;5.90;99.90
13652;DHT22;6899;51.546;6.912;2022-11-30T04:45:19;5.80;99.90
13652;DHT22;6899;51.546;6.912;2022-11-30T04:47:46;5.80;99.90
13652;DHT22;6899;51.546;6.912;2022-11-30T04:50:13;5.90;99.90
13652;DHT22;6899;51.546;6.912;2022-11-30T04:52:39;5.90;99.90
13652;DHT22;6899;51.546;6.912;2022-11-30T04:55:07;5.90;99.90
13652;DHT22;6899;51.546;6.912;2022-11-30T04:57:34;5.90;99.90
13652;DHT22;6899;51.546;6.912;2022-11-30T05:00:01;5.90;99.90
13652;DHT22;6899;51.546;6.912;2022-11-30T05:02:29;5.90;99.90
13652;DHT22;6899;51.546;6.912;2022-11-30T05:04:56;5.90;99.90
13652;DHT22;6899;51.546;6.912;2022-11-30T05:07:23;6.00;99.90
13652;DHT22;6899;51.546;6.912;2022-11-30T05:09:49;6.00;99.90
13652;DHT22;6899;51.546;6.912;2022-11-30T05:12:16;6.10;99.90
13652;DHT22;6899;51.546;6.912;2022-11-30T05:14:43;6.10;99.90
13652;DHT22;6899;51.546;6.912;2022-11-30T05:17:10;6.10;99.90
13652;DHT22;6899;51.546;6.912;2022-11-30T05:19:38;6.10;99.90
13652;DHT22;6899;51.546;6.912;2022-11-30T05:22:05;6.10;99.90
13652;DHT22;6899;51.546;6.912;2022-11-30T05:24:32;6.10;99.90
13652;DHT22;6899;51.546;6.912;2022-11-30T05:26:59;6.10;99.90
13652;DHT22;6899;51.546;6.912;2022-11-30T05:29:26;6.10;99.90
13652;DHT22;6899;51.546;6.912;2022-11-30T05:31:52;6.10;99.90
13652;DHT22;6899;51.546;6.912;2022-11-30T05:34:19;6.00;99.90
13652;DHT22;6899;51.546;6.912;2022-11-30T05:36:47;6.00;99.90
13652;DHT22;6899;51.546;6.912;2022-11-30T05:39:14;6.10;99.90
13652;DHT22;6899;51.546;6.912;2022-11-30T05:41:41;6.00;99.90
13652;DHT22;6899;51.546;6.912;2022-11-30T05:44:08;6.00;99.90
13652;DHT22;6899;51.546;6.912;2022-11-30T05:46:35;6.00;99.90
13652;DHT22;6899;51.546;6.912;2022-11-30T05:49:02;6.00;99.90
13652;DHT22;6899;51.546;6.912;2022-11-30T05:51:29;6.00;99.90
13652;DHT22;6899;51.546;6.912;2022-11-30T05:53:57;6.00;99.90
13652;DHT22;6899;51.546;6.912;2022-11-30T05:56:24;6.00;99.90
13652;DHT22;6899;51.546;6.912;2022-11-30T05:58:51;6.00;99.90
13652;DHT22;6899;51.546;6.912;2022-11-30T06:01:19;6.00;99.90
13652;DHT22;6899;51.546;6.912;2022-11-30T06:03:46;5.90;99.90
13652;DHT22;6899;51.546;6.912;2022-11-30T06:06:13;5.90;99.90
13652;DHT22;6899;51.546;6.912;2022-11-30T06:08:40;5.90;99.90
13652;DHT22;6899;51.546;6.912;2022-11-30T06:11:08;5.90;99.90
13652;DHT22;6899;51.546;6.912;2022-11-30T06:13:35;5.90;99.90
13652;DHT22;6899;51.546;6.912;2022-11-30T06:16:03;6.00;99.90
13652;DHT22;6899;51.546;6.912;2022-11-30T06:18:30;6.00;99.90
13652;DHT22;6899;51.546;6.912;2022-11-30T06:21:03;6.00;99.90
13652;DHT22;6899;51.546;6.912;2022-11-30T06:23:31;5.90;99.90
13652;DHT22;6899;51.546;6.912;2022-11-30T06:26:01;5.90;99.90
13652;DHT22;6899;51.546;6.912;2022-11-30T06:28:29;5.90;99.90
13652;DHT22;6899;51.546;6.912;2022-11-30T06:30:57;5.90;99.90
13652;DHT22;6899;51.546;6.912;2022-11-30T06:33:24;5.90;99.90
13652;DHT22;6899;51.546;6.912;2022-11-30T06:35:51;5.90;99.90
13652;DHT22;6899;51.546;6.912;2022-11-30T06:38:21;5.90;99.90
13652;DHT22;6899;51.546;6.912;2022-11-30T06:40:50;5.80;99.90
13652;DHT22;6899;51.546;6.912;2022-11-30T06:43:17;5.80;99.90
13652;DHT22;6899;51.546;6.912;2022-11-30T06:45:46;5.80;99.90
13652;DHT22;6899;51.546;6.912;2022-11-30T06:48:13;5.80;99.90
13652;DHT22;6899;51.546;6.912;2022-11-30T06:50:40;5.90;99.90
13652;DHT22;6899;51.546;6.912;2022-11-30T06:53:13;5.70;99.90
13652;DHT22;6899;51.546;6.912;2022-11-30T06:55:40;5.70;99.90
13652;DHT22;6899;51.546;6.912;2022-11-30T06:58:08;5.80;99.90
13652;DHT22;6899;51.546;6.912;2022-11-30T07:00:36;5.70;99.90
13652;DHT22;6899;51.546;6.912;2022-11-30T07:03:08;5.80;99.90
13652;DHT22;6899;51.546;6.912;2022-11-30T07:05:40;5.70;99.90
13652;DHT22;6899;51.546;6.912;2022-11-30T07:08:07;5.80;99.90
13652;DHT22;6899;51.546;6.912;2022-11-30T07:10:38;5.70;99.90
13652;DHT22;6899;51.546;6.912;2022-11-30T07:13:05;5.80;99.90
13652;DHT22;6899;51.546;6.912;2022-11-30T07:15:34;5.80;99.90
13652;DHT22;6899;51.546;6.912;2022-11-30T07:18:01;5.70;99.90
13652;DHT22;6899;51.546;6.912;2022-11-30T07:20:29;5.80;99.90
13652;DHT22;6899;51.546;6.912;2022-11-30T07:22:56;5.80;99.90
13652;DHT22;6899;51.546;6.912;2022-11-30T07:25:43;5.80;99.90
13652;DHT22;6899;51.546;6.912;2022-11-30T07:28:28;5.80;99.90
13652;DHT22;6899;51.546;6.912;2022-11-30T07:30:55;5.80;99.90
13652;DHT22;6899;51.546;6.912;2022-11-30T07:33:30;5.80;99.90
13652;DHT22;6899;51.546;6.912;2022-11-30T07:35:58;5.80;99.90
13652;DHT22;6899;51.546;6.912;2022-11-30T07:38:25;5.70;99.90
13652;DHT22;6899;51.546;6.912;2022-11-30T07:40:51;5.80;99.90
13652;DHT22;6899;51.546;6.912;2022-11-30T07:43:18;5.80;99.90
13652;DHT22;6899;51.546;6.912;2022-11-30T07:45:50;5.70;99.90
13652;DHT22;6899;51.546;6.912;2022-11-30T07:48:20;5.80;99.90
13652;DHT22;6899;51.546;6.912;2022-11-30T07:50:48;5.80;99.90
13652;DHT22;6899;51.546;6.912;2022-11-30T07:53:19;5.80;99.90
13652;DHT22;6899;51.546;6.912;2022-11-30T07:55:46;5.80;99.90
13652;DHT22;6899;51.546;6.912;2022-11-30T07:58:12;5.80;99.90
13652;DHT22;6899;51.546;6.912;2022-11-30T08:00:39;5.80;99.90
13652;DHT22;6899;51.546;6.912;2022-11-30T08:03:06;5.80;99.90
13652;DHT22;6899;51.546;6.912;2022-11-30T08:05:33;5.80;99.90
13652;DHT22;6899;51.546;6.912;2022-11-30T08:08:00;5.90;99.90
13652;DHT22;6899;51.546;6.912;2022-11-30T08:10:28;5.90;99.90
13652;DHT22;6899;51.546;6.912;2022-11-30T08:12:54;5.80;99.90
13652;DHT22;6899;51.546;6.912;2022-11-30T08:15:21;5.90;99.90
13652;DHT22;6899;51.546;6.912;2022-11-30T08:17:48;5.90;99.90
13652;DHT22;6899;51.546;6.912;2022-11-30T08:20:19;5.90;99.90
13652;DHT22;6899;51.546;6.912;2022-11-30T08:22:46;5.80;99.90
13652;DHT22;6899;51.546;6.912;2022-11-30T08:25:13;5.80;99.90
13652;DHT22;6899;51.546;6.912;2022-11-30T08:27:41;5.80;99.90
13652;DHT22;6899;51.546;6.912;2022-11-30T08:30:09;5.90;99.90
13652;DHT22;6899;51.546;6.912;2022-11-30T08:32:35;5.90;99.90
13652;DHT22;6899;51.546;6.912;2022-11-30T08:35:03;5.90;99.90
13652;DHT22;6899;51.546;6.912;2022-11-30T08:37:29;5.90;99.90
13652;DHT22;6899;51.546;6.912;2022-11-30T08:39:56;5.90;99.90
13652;DHT22;6899;51.546;6.912;2022-11-30T08:42:23;5.90;99.90
13652;DHT22;6899;51.546;6.912;2022-11-30T08:44:51;6.00;99.90
13652;DHT22;6899;51.546;6.912;2022-11-30T08:47:18;6.00;99.90
13652;DHT22;6899;51.546;6.912;2022-11-30T08:49:45;6.00;99.90
13652;DHT22;6899;51.546;6.912;2022-11-30T08:52:12;6.00;99.90
13652;DHT22;6899;51.546;6.912;2022-11-30T08:54:40;6.00;99.90
13652;DHT22;6899;51.546;6.912;2022-11-30T08:57:09;6.00;99.90
13652;DHT22;6899;51.546;6.912;2022-11-30T08:59:46;6.10;99.90
13652;DHT22;6899;51.546;6.912;2022-11-30T09:02:22;6.00;99.90
13652;DHT22;6899;51.546;6.912;2022-11-30T09:04:49;6.10;99.90
13652;DHT22;6899;51.546;6.912;2022-11-30T09:07:17;6.10;99.90
13652;DHT22;6899;51.546;6.912;2022-11-30T09:09:49;6.10;99.90
13652;DHT22;6899;51.546;6.912;2022-11-30T09:12:19;6.10;99.90
13652;DHT22;6899;51.546;6.912;2022-11-30T09:14:47;6.10;99.90
13652;DHT22;6899;51.546;6.912;2022-11-30T09:17:15;6.10;99.90
13652;DHT22;6899;51.546;6.912;2022-11-30T09:19:44;6.20;99.90
13652;DHT22;6899;51.546;6.912;2022-11-30T09:22:26;6.20;99.90
13652;DHT22;6899;51.546;6.912;2022-11-30T09:25:00;6.30;99.90
13652;DHT22;6899;51.546;6.912;2022-11-30T09:27:35;6.30;99.90
13652;DHT22;6899;51.546;6.912;2022-11-30T09:30:34;6.30;99.90
13652;DHT22;6899;51.546;6.912;2022-11-30T09:33:01;6.40;99.90
13652;DHT22;6899;51.546;6.912;2022-11-30T09:35:29;6.40;99.90
13652;DHT22;6899;51.546;6.912;2022-11-30T09:37:56;6.40;99.90
13652;DHT22;6899;51.546;6.912;2022-11-30T09:40:27;6.40;99.90
13652;DHT22;6899;51.546;6.912;2022-11-30T09:43:02;6.40;99.90
13652;DHT22;6899;51.546;6.912;2022-11-30T09:45:37;6.50;99.90
13652;DHT22;6899;51.546;6.912;2022-11-30T09:48:47;6.50;99.90
13652;DHT22;6899;51.546;6.912;2022-11-30T09:51:24;6.50;99.90
13652;DHT22;6899;51.546;6.912;2022-11-30T09:54:01;6.60;99.90
13652;DHT22;6899;51.546;6.912;2022-11-30T09:56:40;6.60;99.90
13652;DHT22;6899;51.546;6.912;2022-11-30T09:59:21;6.60;99.90
13652;DHT22;6899;51.546;6.912;2022-11-30T10:01:52;6.70;99.90
13652;DHT22;6899;51.546;6.912;2022-11-30T10:04:29;6.80;99.90
13652;DHT22;6899;51.546;6.912;2022-11-30T10:07:10;6.70;99.90
13652;DHT22;6899;51.546;6.912;2022-11-30T10:09:44;6.80;99.90
13652;DHT22;6899;51.546;6.912;2022-11-30T10:12:18;6.90;99.90
13652;DHT22;6899;51.546;6.912;2022-11-30T10:15:00;6.80;99.90
13652;DHT22;6899;51.546;6.912;2022-11-30T10:17:41;6.80;99.90
13652;DHT22;6899;51.546;6.912;2022-11-30T10:20:20;6.80;99.90
13652;DHT22;6899;51.546;6.912;2022-11-30T10:23:07;6.80;99.90
13652;DHT22;6899;51.546;6.912;2022-11-30T10:25:46;6.80;99.90
13652;DHT22;6899;51.546;6.912;2022-11-30T10:28:32;6.80;99.90
13652;DHT22;6899;51.546;6.912;2022-11-30T10:31:09;6.90;99.90
13652;DHT22;6899;51.546;6.912;2022-11-30T10:33:41;7.00;99.90
13652;DHT22;6899;51.546;6.912;2022-11-30T10:36:21;7.00;99.90
13652;DHT22;6899;51.546;6.912;2022-11-30T10:39:05;7.00;99.90
13652;DHT22;6899;51.546;6.912;2022-11-30T10:41:40;7.00;99.90
13652;DHT22;6899;51.546;6.912;2022-11-30T10:44:24;7.10;99.90
13652;DHT22;6899;51.546;6.912;2022-11-30T10:47:13;7.00;99.90
13652;DHT22;6899;51.546;6.912;2022-11-30T10:49:48;7.00;99.90
13652;DHT22;6899;51.546;6.912;2022-11-30T10:52:21;7.00;99.90
13652;DHT22;6899;51.546;6.912;2022-11-30T10:54:55;7.00;99.90
13652;DHT22;6899;51.546;6.912;2022-11-30T10:57:32;7.00;99.90
13652;DHT22;6899;51.546;6.912;2022-11-30T11:00:04;7.00;99.90
13652;DHT22;6899;51.546;6.912;2022-11-30T11:02:38;7.00;99.90
13652;DHT22;6899;51.546;6.912;2022-11-30T11:05:08;7.00;99.90
13652;DHT22;6899;51.546;6.912;2022-11-30T11:07:45;7.00;99.90
13652;DHT22;6899;51.546;6.912;2022-11-30T11:10:17;7.00;99.90
13652;DHT22;6899;51.546;6.912;2022-11-30T11:12:52;6.90;99.90
13652;DHT22;6899;51.546;6.912;2022-11-30T11:15:22;7.00;99.90
13652;DHT22;6899;51.546;6.912;2022-11-30T11:17:50;7.00;99.90
13652;DHT22;6899;51.546;6.912;2022-11-30T11:20:38;7.00;99.90
13652;DHT22;6899;51.546;6.912;2022-11-30T11:23:20;7.10;99.90
13652;DHT22;6899;51.546;6.912;2022-11-30T11:25:50;7.00;99.90
13652;DHT22;6899;51.546;6.912;2022-11-30T11:28:19;7.10;99.90
13652;DHT22;6899;51.546;6.912;2022-11-30T11:30:54;7.20;99.90
13652;DHT22;6899;51.546;6.912;2022-11-30T11:33:25;7.10;99.90
13652;DHT22;6899;51.546;6.912;2022-11-30T11:35:54;7.10;99.90
13652;DHT22;6899;51.546;6.912;2022-11-30T11:38:38;7.10;99.90
13652;DHT22;6899;51.546;6.912;2022-11-30T11:41:29;7.10;99.90
13652;DHT22;6899;51.546;6.912;2022-11-30T11:44:18;7.10;99.90
13652;DHT22;6899;51.546;6.912;2022-11-30T11:46:55;7.10;99.90
13652;DHT22;6899;51.546;6.912;2022-11-30T11:49:33;7.10;99.90
13652;DHT22;6899;51.546;6.912;2022-11-30T11:52:04;7.10;99.90
13652;DHT22;6899;51.546;6.912;2022-11-30T11:57:31;7.10;99.90
13652;DHT22;6899;51.546;6.912;2022-11-30T12:00:15;7.00;99.90
13652;DHT22;6899;51.546;6.912;2022-11-30T12:02:49;7.00;99.90
13652;DHT22;6899;51.546;6.912;2022-11-30T12:05:20;7.00;99.90
13652;DHT22;6899;51.546;6.912;2022-11-30T12:08:02;7.10;99.90
13652;DHT22;6899;51.546;6.912;2022-11-30T12:10:35;7.10;99.90
13652;DHT22;6899;51.546;6.912;2022-11-30T12:13:14;7.00;99.90
13652;DHT22;6899;51.546;6.912;2022-11-30T12:15:57;6.90;99.90
13652;DHT22;6899;51.546;6.912;2022-11-30T12:18:40;6.90;99.90
13652;DHT22;6899;51.546;6.912;2022-11-30T12:21:20;6.80;99.90
13652;DHT22;6899;51.546;6.912;2022-11-30T12:24:18;6.80;99.90
13652;DHT22;6899;51.546;6.912;2022-11-30T12:26:52;6.90;99.90
13652;DHT22;6899;51.546;6.912;2022-11-30T12:29:24;6.90;99.90
13652;DHT22;6899;51.546;6.912;2022-11-30T12:32:06;6.90;99.90
13652;DHT22;6899;51.546;6.912;2022-11-30T12:35:03;6.90;99.90
13652;DHT22;6899;51.546;6.912;2022-11-30T12:37:38;7.00;99.90
13652;DHT22;6899;51.546;6.912;2022-11-30T12:40:23;7.00;99.90
13652;DHT22;6899;51.546;6.912;2022-11-30T12:42:57;7.20;99.90
13652;DHT22;6899;51.546;6.912;2022-11-30T12:45:37;7.20;99.90
13652;DHT22;6899;51.546;6.912;2022-11-30T12:48:16;7.20;99.90
13652;DHT22;6899;51.546;6.912;2022-11-30T12:50:59;7.20;99.90
13652;DHT22;6899;51.546;6.912;2022-11-30T12:53:35;7.20;99.90
13652;DHT22;6899;51.546;6.912;2022-11-30T12:56:15;7.20;99.90
13652;DHT22;6899;51.546;6.912;2022-11-30T12:58:46;7.20;99.90
13652;DHT22;6899;51.546;6.912;2022-11-30T13:01:33;7.20;99.90
13652;DHT22;6899;51.546;6.912;2022-11-30T13:04:06;7.20;99.90
13652;DHT22;6899;51.546;6.912;2022-11-30T13:06:39;7.10;99.90
13652;DHT22;6899;51.546;6.912;2022-11-30T13:09:12;7.10;99.90
13652;DHT22;6899;51.546;6.912;2022-11-30T13:11:46;7.10;99.90
13652;DHT22;6899;51.546;6.912;2022-11-30T13:14:20;7.10;99.90
13652;DHT22;6899;51.546;6.912;2022-11-30T13:16:55;7.10;99.90
13652;DHT22;6899;51.546;6.912;2022-11-30T13:19:35;7.10;99.90
13652;DHT22;6899;51.546;6.912;2022-11-30T13:22:08;7.00;99.90
13652;DHT22;6899;51.546;6.912;2022-11-30T13:28:15;7.00;99.90
13652;DHT22;6899;51.546;6.912;2022-11-30T13:31:06;6.90;99.90
13652;DHT22;6899;51.546;6.912;2022-11-30T13:34:01;6.90;99.90
13652;DHT22;6899;51.546;6.912;2022-11-30T13:36:36;6.90;99.90
13652;DHT22;6899;51.546;6.912;2022-11-30T13:39:28;6.90;99.90
13652;DHT22;6899;51.546;6.912;2022-11-30T13:48:29;7.10;99.90
13652;DHT22;6899;51.546;6.912;2022-11-30T13:50:58;7.10;99.90
13652;DHT22;6899;51.546;6.912;2022-11-30T13:53:27;7.00;99.90
13652;DHT22;6899;51.546;6.912;2022-11-30T13:56:35;6.90;99.90
13652;DHT22;6899;51.546;6.912;2022-11-30T13:59:36;7.00;99.90
13652;DHT22;6899;51.546;6.912;2022-11-30T14:05:43;6.90;99.90
13652;DHT22;6899;51.546;6.912;2022-11-30T14:08:40;6.90;99.90
13652;DHT22;6899;51.546;6.912;2022-11-30T14:11:42;7.00;99.90
13652;DHT22;6899;51.546;6.912;2022-11-30T14:14:45;7.00;99.90
13652;DHT22;6899;51.546;6.912;2022-11-30T14:17:25;7.00;99.90
13652;DHT22;6899;51.546;6.912;2022-11-30T14:20:06;7.00;99.90
13652;DHT22;6899;51.546;6.912;2022-11-30T14:22:34;6.90;99.90
13652;DHT22;6899;51.546;6.912;2022-11-30T14:25:14;7.00;99.90
13652;DHT22;6899;51.546;6.912;2022-11-30T14:27:43;7.00;99.90
13652;DHT22;6899;51.546;6.912;2022-11-30T14:30:17;6.90;99.90
13652;DHT22;6899;51.546;6.912;2022-11-30T14:32:54;6.90;99.90
13652;DHT22;6899;51.546;6.912;2022-11-30T14:35:32;6.90;99.90
13652;DHT22;6899;51.546;6.912;2022-11-30T14:38:23;6.90;99.90
13652;DHT22;6899;51.546;6.912;2022-11-30T14:40:53;6.90;99.90
13652;DHT22;6899;51.546;6.912;2022-11-30T14:44:00;6.90;99.90
13652;DHT22;6899;51.546;6.912;2022-11-30T14:46:50;6.90;99.90
13652;DHT22;6899;51.546;6.912;2022-11-30T14:49:21;6.80;99.90
13652;DHT22;6899;51.546;6.912;2022-11-30T14:51:51;6.80;99.90
13652;DHT22;6899;51.546;6.912;2022-11-30T14:54:36;6.80;99.90
13652;DHT22;6899;51.546;6.912;2022-11-30T14:57:15;6.70;99.90
13652;DHT22;6899;51.546;6.912;2022-11-30T14:59:48;6.70;99.90
13652;DHT22;6899;51.546;6.912;2022-11-30T15:02:26;6.70;99.90
13652;DHT22;6899;51.546;6.912;2022-11-30T15:05:11;6.70;99.90
13652;DHT22;6899;51.546;6.912;2022-11-30T15:07:43;6.70;99.90
13652;DHT22;6899;51.546;6.912;2022-11-30T15:10:14;6.60;99.90
13652;DHT22;6899;51.546;6.912;2022-11-30T15:12:43;6.70;99.90
13652;DHT22;6899;51.546;6.912;2022-11-30T15:15:19;6.60;99.90
13652;DHT22;6899;51.546;6.912;2022-11-30T15:17:55;6.60;99.90
13652;DHT22;6899;51.546;6.912;2022-11-30T15:20:37;6.60;99.90
13652;DHT22;6899;51.546;6.912;2022-11-30T15:23:11;6.60;99.90
13652;DHT22;6899;51.546;6.912;2022-11-30T15:25:41;6.60;99.90
13652;DHT22;6899;51.546;6.912;2022-11-30T15:28:20;6.60;99.90
13652;DHT22;6899;51.546;6.912;2022-11-30T15:30:52;6.50;99.90
13652;DHT22;6899;51.546;6.912;2022-11-30T15:33:21;6.50;99.90
13652;DHT22;6899;51.546;6.912;2022-11-30T15:36:06;6.50;99.90
13652;DHT22;6899;51.546;6.912;2022-11-30T15:38:36;6.50;99.90
13652;DHT22;6899;51.546;6.912;2022-11-30T15:41:06;6.50;99.90
13652;DHT22;6899;51.546;6.912;2022-11-30T15:43:36;6.50;99.90
13652;DHT22;6899;51.546;6.912;2022-11-30T15:48:48;6.40;99.90
13652;DHT22;6899;51.546;6.912;2022-11-30T15:51:22;6.40;99.90
13652;DHT22;6899;51.546;6.912;2022-11-30T15:53:52;6.50;99.90
13652;DHT22;6899;51.546;6.912;2022-11-30T15:56:25;6.50;99.90
13652;DHT22;6899;51.546;6.912;2022-11-30T15:59:02;6.50;99.90
13652;DHT22;6899;51.546;6.912;2022-11-30T16:01:29;6.50;99.90
13652;DHT22;6899;51.546;6.912;2022-11-30T16:04:03;6.40;99.90
13652;DHT22;6899;51.546;6.912;2022-11-30T16:06:33;6.40;99.90
13652;DHT22;6899;51.546;6.912;2022-11-30T16:09:16;6.40;99.90
13652;DHT22;6899;51.546;6.912;2022-11-30T16:11:53;6.40;99.90
13652;DHT22;6899;51.546;6.912;2022-11-30T16:14:28;6.40;99.90
13652;DHT22;6899;51.546;6.912;2022-11-30T16:16:55;6.40;99.90
13652;DHT22;6899;51.546;6.912;2022-11-30T16:19:24;6.40;99.90
13652;DHT22;6899;51.546;6.912;2022-11-30T16:21:51;6.30;99.90
13652;DHT22;6899;51.546;6.912;2022-11-30T16:24:18;6.30;99.90
13652;DHT22;6899;51.546;6.912;2022-11-30T16:26:46;6.20;99.90
13652;DHT22;6899;51.546;6.912;2022-11-30T16:29:15;6.20;99.90
13652;DHT22;6899;51.546;6.912;2022-11-30T16:31:48;6.10;99.90
13652;DHT22;6899;51.546;6.912;2022-11-30T16:34:17;6.20;99.90
13652;DHT22;6899;51.546;6.912;2022-11-30T16:36:45;6.10;99.90
13652;DHT22;6899;51.546;6.912;2022-11-30T16:39:17;6.20;99.90
13652;DHT22;6899;51.546;6.912;2022-11-30T16:41:48;6.10;99.90
13652;DHT22;6899;51.546;6.912;2022-11-30T16:44:18;6.10;99.90
13652;DHT22;6899;51.546;6.912;2022-11-30T16:46:47;6.10;99.90
13652;DHT22;6899;51.546;6.912;2022-11-30T16:49:14;6.10;99.90
13652;DHT22;6899;51.546;6.912;2022-11-30T16:51:44;6.10;99.90
13652;DHT22;6899;51.546;6.912;2022-11-30T16:54:12;6.10;99.90